Terminal Aerodrome Forecast
Issued by NWS

Home | Current Version | Previous Version | Text Only | Print | Product List | Glossary On
Versions: 1 2 3 4 5 6 7 8 9 10 11 12 13 14 15 16 17 18 19 20 21 22 23 24 25 26 27 28 29 30 31 32 33
000
FTUS41 KGYX 211127
TAFLEB
TAF
KLEB 211127Z 2112/2212 VRB03KT 2SM BR BKN001 WS020/24035KT
     FM211300 21008KT P6SM BKN040 WS020/25040KT
     FM212100 32007KT P6SM BKN080
     FM220700 VRB03KT P6SM BKN200=

USA.gov is the U.S. government's official web portal to all federal, state and local government web resources and services.